Unser Flugplatzteam

Segelflugzeugschlepp am Flugplatz Konstanz

Unsere freundlichen Mitarbeiter stehen Ihnen gerne mit Rat und Tat zur Seite:

Minky Schweizer

Flugleiterin, Beauftragte für Luftaufsicht am Verkehrlandeplatz Konstanz

Jan Schumacher

Flugleiter, Beauftragter für Luftaufsicht am Verkehrlandeplatz Konstanz

Live am Platz

Die Bilder unserer Webcams werden alle 5 Minuten aktualisiert.

Sonnenaufgang:

05:03 UTC / 07:03 Lokal

Sonnenuntergang:

17:31 UTC / 19:31 Lokal

METAR (18.09.2021 03:50 UTC):

EDNY 180350Z AUTO 04003KT 9999 // FEW042/// 10/09 Q1016
VFR

TAF (17.09.2021 23:00 UTC):

TAF EDNY 172300Z 1800/1824 03005KT 9999 FEW040 PROB30 TEMPO 1804/1808 BKN009

Alle Angaben unverbindlich und ohne Gewähr. Zeiten genähert.

Für den Verkehrslandeplatz Konstanz werden keine offiziellen Wetterinformationen ausgegeben. Daher werden zur Orientierung Daten des nahegelegenen Flughafens Friedrichshafen dargestellt.

Das Landeentgelt kann bei uns auch mit aerops bezahlt werden. Die App für's Handy ist kostenfrei erhältlich.